Ronald Reagan Washington National Airport Washington US
ICAO: KDCA
IATA: DCA
Category: Large
Scheduled Services: Yes

Elevation: 15 ft
TransAlt. 18000 ft.

Airport Communications:
POTOMAC APP:118.3
ATIS:132.65
CLNC DEL:128.25
POTOMAC DEP:118.95
GND:121.7
WASHINGTON TWR:119.1
UNICOM:122.95

KDCA Zoom In..

If you have problems with the map follow the link
https://www.worldairports.se/pages/airport.php?
ICAO=KDCA

Runways:

(A) RW 01 length 7169 ft width 150 ft
ILS 109.90 / hdg 5

(B) RW 04 length 4911 ft width 150 ft
---- / hdg 35

(C) RW 15 length 5204 ft width 150 ft
---- / hdg 152

(D) RW 19 length 7169 ft width 150 ft
---- / hdg 185

(E) RW 22 length 4911 ft width 150 ft
---- / hdg 215

(F) RW 33 length 5204 ft width 150 ft
---- / hdg 332

Location; KDCA
Day. 18 / Time. 12.52 Zulu
* Altimeter: 30.57
* Temperature: -03° c. -26.6°f.
* Wind from: 150° Speed 07 kn.
Dewpoint: -06° c.
Visibility: 10 Statute Miles.
Clouds: Few 1500 ft.
Clouds: Overcast 4800 ft.

KDCA 181252Z 15007KT 10SM FEW015 OVC048 M03/M06 A3057 RMK AO2 SNE14 SLP352 P0001 T10281061 $


Wind From 150°
Speed 07 kn.

 
 
jpsmedia worldairports.se 2020   terms of use